Amherst, Texas
Current Conditions -  °F | °C
As of 9:55 PM on Saturday 24 Jan 2015 (Local Time) from KPVW Reporting Station
Clear Clear  
Wind Chill: 30°   Ceiling: Unl
Heat Index: 37°   Visibility: 10mi
Dew Point: 32°   Wind: 10mph
Humidity: 81%   Direction: 280°W
Pressure: 30"   Gusts: NA
Location:  34.01°N, 102.42°W
Report Text: KPVW 250355Z AUTO 28009KT 10SM CLR 03/00 A3000 RMK AO2 T00300000
Loading
Personal Weather Stations






























Interactive Weather Map New forecast layout! Learn more

10-Day Weather Forecast

Advertisements
Track Severe Weather on mobile